sensor_id;sensor_type;location;lat;lon;timestamp;temperature;humidity
6206;DHT22;3136;48.788;9.772;2024-01-06T00:00:26;4.60;1.00
6206;DHT22;3136;48.788;9.772;2024-01-06T00:02:52;4.60;1.00
6206;DHT22;3136;48.788;9.772;2024-01-06T00:05:17;4.60;1.00
6206;DHT22;3136;48.788;9.772;2024-01-06T00:07:43;4.60;1.00
6206;DHT22;3136;48.788;9.772;2024-01-06T00:10:08;4.60;1.00
6206;DHT22;3136;48.788;9.772;2024-01-06T00:12:34;4.60;1.00
6206;DHT22;3136;48.788;9.772;2024-01-06T00:15:00;4.60;1.00
6206;DHT22;3136;48.788;9.772;2024-01-06T00:17:25;4.60;1.00
6206;DHT22;3136;48.788;9.772;2024-01-06T00:19:51;4.60;1.00
6206;DHT22;3136;48.788;9.772;2024-01-06T00:22:18;4.60;1.00
6206;DHT22;3136;48.788;9.772;2024-01-06T00:24:43;4.60;1.00
6206;DHT22;3136;48.788;9.772;2024-01-06T00:27:09;4.50;1.00
6206;DHT22;3136;48.788;9.772;2024-01-06T00:29:35;4.50;1.00
6206;DHT22;3136;48.788;9.772;2024-01-06T00:32:00;4.60;1.00
6206;DHT22;3136;48.788;9.772;2024-01-06T00:34:26;4.60;1.00
6206;DHT22;3136;48.788;9.772;2024-01-06T00:36:51;4.60;1.00
6206;DHT22;3136;48.788;9.772;2024-01-06T00:39:17;4.60;1.00
6206;DHT22;3136;48.788;9.772;2024-01-06T00:41:43;4.60;1.00
6206;DHT22;3136;48.788;9.772;2024-01-06T00:44:09;4.70;1.00
6206;DHT22;3136;48.788;9.772;2024-01-06T00:46:35;4.70;1.00
6206;DHT22;3136;48.788;9.772;2024-01-06T00:49:00;4.60;1.00
6206;DHT22;3136;48.788;9.772;2024-01-06T00:51:26;4.70;1.00
6206;DHT22;3136;48.788;9.772;2024-01-06T00:53:51;4.70;1.00
6206;DHT22;3136;48.788;9.772;2024-01-06T00:56:17;4.70;1.00
6206;DHT22;3136;48.788;9.772;2024-01-06T00:58:42;4.70;1.00
6206;DHT22;3136;48.788;9.772;2024-01-06T01:01:08;4.70;1.00
6206;DHT22;3136;48.788;9.772;2024-01-06T01:03:33;4.70;1.00
6206;DHT22;3136;48.788;9.772;2024-01-06T01:05:59;4.70;1.00
6206;DHT22;3136;48.788;9.772;2024-01-06T01:08:25;4.70;1.00
6206;DHT22;3136;48.788;9.772;2024-01-06T01:10:50;4.60;1.00
6206;DHT22;3136;48.788;9.772;2024-01-06T01:13:16;4.60;1.00
6206;DHT22;3136;48.788;9.772;2024-01-06T01:15:41;4.60;1.00
6206;DHT22;3136;48.788;9.772;2024-01-06T01:18:07;4.60;1.00
6206;DHT22;3136;48.788;9.772;2024-01-06T01:20:33;4.60;1.00
6206;DHT22;3136;48.788;9.772;2024-01-06T01:22:58;4.60;1.00
6206;DHT22;3136;48.788;9.772;2024-01-06T01:25:24;4.60;1.00
6206;DHT22;3136;48.788;9.772;2024-01-06T01:27:49;4.60;1.00
6206;DHT22;3136;48.788;9.772;2024-01-06T01:30:15;4.60;1.00
6206;DHT22;3136;48.788;9.772;2024-01-06T01:32:40;4.60;1.00
6206;DHT22;3136;48.788;9.772;2024-01-06T01:35:06;4.60;1.00
6206;DHT22;3136;48.788;9.772;2024-01-06T01:37:32;4.60;1.00
6206;DHT22;3136;48.788;9.772;2024-01-06T01:39:57;4.50;1.00
6206;DHT22;3136;48.788;9.772;2024-01-06T01:42:23;4.60;1.00
6206;DHT22;3136;48.788;9.772;2024-01-06T01:44:48;4.60;1.00
6206;DHT22;3136;48.788;9.772;2024-01-06T01:47:14;4.60;1.00
6206;DHT22;3136;48.788;9.772;2024-01-06T01:49:45;4.60;1.00
6206;DHT22;3136;48.788;9.772;2024-01-06T01:52:12;4.60;1.00
6206;DHT22;3136;48.788;9.772;2024-01-06T01:54:38;4.60;1.00
6206;DHT22;3136;48.788;9.772;2024-01-06T01:57:04;4.50;1.00
6206;DHT22;3136;48.788;9.772;2024-01-06T01:59:30;4.50;1.00
6206;DHT22;3136;48.788;9.772;2024-01-06T02:01:55;4.50;1.00
6206;DHT22;3136;48.788;9.772;2024-01-06T02:04:21;4.50;1.00
6206;DHT22;3136;48.788;9.772;2024-01-06T02:06:47;4.50;1.00
6206;DHT22;3136;48.788;9.772;2024-01-06T02:09:13;4.50;1.00
6206;DHT22;3136;48.788;9.772;2024-01-06T02:11:39;4.60;1.00
6206;DHT22;3136;48.788;9.772;2024-01-06T02:14:04;4.50;1.00
6206;DHT22;3136;48.788;9.772;2024-01-06T02:16:30;4.50;1.00
6206;DHT22;3136;48.788;9.772;2024-01-06T02:18:55;4.50;1.00
6206;DHT22;3136;48.788;9.772;2024-01-06T02:21:23;4.50;1.00
6206;DHT22;3136;48.788;9.772;2024-01-06T02:23:49;4.50;1.00
6206;DHT22;3136;48.788;9.772;2024-01-06T02:26:15;5.30;1.00
6206;DHT22;3136;48.788;9.772;2024-01-06T02:28:41;4.40;1.00
6206;DHT22;3136;48.788;9.772;2024-01-06T02:31:06;4.40;1.00
6206;DHT22;3136;48.788;9.772;2024-01-06T02:33:32;4.40;1.00
6206;DHT22;3136;48.788;9.772;2024-01-06T02:35:57;4.40;1.00
6206;DHT22;3136;48.788;9.772;2024-01-06T02:38:23;4.40;1.00
6206;DHT22;3136;48.788;9.772;2024-01-06T02:40:48;4.40;1.00
6206;DHT22;3136;48.788;9.772;2024-01-06T02:43:14;4.40;1.00
6206;DHT22;3136;48.788;9.772;2024-01-06T02:45:39;4.40;1.00
6206;DHT22;3136;48.788;9.772;2024-01-06T02:48:05;4.40;1.00
6206;DHT22;3136;48.788;9.772;2024-01-06T02:50:31;4.40;1.00
6206;DHT22;3136;48.788;9.772;2024-01-06T02:52:56;4.40;1.00
6206;DHT22;3136;48.788;9.772;2024-01-06T02:55:22;4.40;1.00
6206;DHT22;3136;48.788;9.772;2024-01-06T02:57:47;4.40;1.00
6206;DHT22;3136;48.788;9.772;2024-01-06T03:00:13;4.40;1.00
6206;DHT22;3136;48.788;9.772;2024-01-06T03:02:39;4.30;1.00
6206;DHT22;3136;48.788;9.772;2024-01-06T03:05:08;5.00;1.00
6206;DHT22;3136;48.788;9.772;2024-01-06T03:07:35;4.30;1.00
6206;DHT22;3136;48.788;9.772;2024-01-06T03:10:00;4.30;1.00
6206;DHT22;3136;48.788;9.772;2024-01-06T03:12:26;4.30;1.00
6206;DHT22;3136;48.788;9.772;2024-01-06T03:14:51;4.30;1.00
6206;DHT22;3136;48.788;9.772;2024-01-06T03:17:18;4.30;1.00
6206;DHT22;3136;48.788;9.772;2024-01-06T03:19:44;4.30;1.00
6206;DHT22;3136;48.788;9.772;2024-01-06T03:22:09;4.20;1.00
6206;DHT22;3136;48.788;9.772;2024-01-06T03:24:35;4.20;1.00
6206;DHT22;3136;48.788;9.772;2024-01-06T03:27:01;4.20;1.00
6206;DHT22;3136;48.788;9.772;2024-01-06T03:29:26;4.20;1.00
6206;DHT22;3136;48.788;9.772;2024-01-06T03:31:52;4.20;1.00
6206;DHT22;3136;48.788;9.772;2024-01-06T03:34:17;4.20;1.00
6206;DHT22;3136;48.788;9.772;2024-01-06T03:36:43;4.20;1.00
6206;DHT22;3136;48.788;9.772;2024-01-06T03:39:08;4.20;1.00
6206;DHT22;3136;48.788;9.772;2024-01-06T03:41:35;4.10;1.00
6206;DHT22;3136;48.788;9.772;2024-01-06T03:44:01;4.20;1.00
6206;DHT22;3136;48.788;9.772;2024-01-06T03:46:26;4.10;1.00
6206;DHT22;3136;48.788;9.772;2024-01-06T03:48:52;4.10;1.00
6206;DHT22;3136;48.788;9.772;2024-01-06T03:51:17;4.00;1.00
6206;DHT22;3136;48.788;9.772;2024-01-06T03:53:43;4.00;1.00
6206;DHT22;3136;48.788;9.772;2024-01-06T03:56:09;4.00;1.00
6206;DHT22;3136;48.788;9.772;2024-01-06T03:58:34;4.00;1.00
6206;DHT22;3136;48.788;9.772;2024-01-06T04:01:00;4.00;1.00
6206;DHT22;3136;48.788;9.772;2024-01-06T04:03:26;4.00;1.00
6206;DHT22;3136;48.788;9.772;2024-01-06T04:05:51;4.00;1.00
6206;DHT22;3136;48.788;9.772;2024-01-06T04:08:17;4.00;1.00
6206;DHT22;3136;48.788;9.772;2024-01-06T04:10:43;3.90;1.00
6206;DHT22;3136;48.788;9.772;2024-01-06T04:13:10;3.90;1.00
6206;DHT22;3136;48.788;9.772;2024-01-06T04:15:35;4.00;1.00
6206;DHT22;3136;48.788;9.772;2024-01-06T04:18:02;3.90;1.00
6206;DHT22;3136;48.788;9.772;2024-01-06T04:20:32;3.90;1.00
6206;DHT22;3136;48.788;9.772;2024-01-06T04:22:58;3.90;1.00
6206;DHT22;3136;48.788;9.772;2024-01-06T04:25:24;3.90;1.00
6206;DHT22;3136;48.788;9.772;2024-01-06T04:27:49;3.90;1.00
6206;DHT22;3136;48.788;9.772;2024-01-06T04:30:15;3.90;1.00
6206;DHT22;3136;48.788;9.772;2024-01-06T04:32:42;3.90;1.00
6206;DHT22;3136;48.788;9.772;2024-01-06T04:35:07;3.90;1.00
6206;DHT22;3136;48.788;9.772;2024-01-06T04:37:33;3.90;1.00
6206;DHT22;3136;48.788;9.772;2024-01-06T04:39:59;3.90;1.00
6206;DHT22;3136;48.788;9.772;2024-01-06T04:42:24;3.90;1.00
6206;DHT22;3136;48.788;9.772;2024-01-06T04:44:50;3.90;1.00
6206;DHT22;3136;48.788;9.772;2024-01-06T04:47:16;3.90;1.00
6206;DHT22;3136;48.788;9.772;2024-01-06T04:49:43;3.80;1.00
6206;DHT22;3136;48.788;9.772;2024-01-06T04:52:08;3.80;1.00
6206;DHT22;3136;48.788;9.772;2024-01-06T04:54:34;3.90;1.00
6206;DHT22;3136;48.788;9.772;2024-01-06T04:56:59;3.90;1.00
6206;DHT22;3136;48.788;9.772;2024-01-06T04:59:25;3.80;1.00
6206;DHT22;3136;48.788;9.772;2024-01-06T05:01:51;3.80;1.00
6206;DHT22;3136;48.788;9.772;2024-01-06T05:04:17;3.90;1.00
6206;DHT22;3136;48.788;9.772;2024-01-06T05:06:43;3.80;1.00
6206;DHT22;3136;48.788;9.772;2024-01-06T05:09:09;3.80;1.00
6206;DHT22;3136;48.788;9.772;2024-01-06T05:14:04;3.90;1.00
6206;DHT22;3136;48.788;9.772;2024-01-06T05:16:30;3.80;1.00
6206;DHT22;3136;48.788;9.772;2024-01-06T05:18:55;3.80;1.00
6206;DHT22;3136;48.788;9.772;2024-01-06T05:21:21;3.80;1.00
6206;DHT22;3136;48.788;9.772;2024-01-06T05:23:46;3.90;1.00
6206;DHT22;3136;48.788;9.772;2024-01-06T05:26:12;3.80;1.00
6206;DHT22;3136;48.788;9.772;2024-01-06T05:28:39;3.80;1.00
6206;DHT22;3136;48.788;9.772;2024-01-06T05:31:05;3.90;1.00
6206;DHT22;3136;48.788;9.772;2024-01-06T05:33:30;3.80;1.00
6206;DHT22;3136;48.788;9.772;2024-01-06T05:35:56;3.90;1.00
6206;DHT22;3136;48.788;9.772;2024-01-06T05:38:21;3.80;1.00
6206;DHT22;3136;48.788;9.772;2024-01-06T05:40:47;3.80;1.00
6206;DHT22;3136;48.788;9.772;2024-01-06T05:43:12;3.90;1.00
6206;DHT22;3136;48.788;9.772;2024-01-06T05:45:38;3.80;1.00
6206;DHT22;3136;48.788;9.772;2024-01-06T05:48:09;3.80;1.00
6206;DHT22;3136;48.788;9.772;2024-01-06T05:50:34;3.80;1.00
6206;DHT22;3136;48.788;9.772;2024-01-06T05:53:00;3.80;1.00
6206;DHT22;3136;48.788;9.772;2024-01-06T05:55:25;3.80;1.00
6206;DHT22;3136;48.788;9.772;2024-01-06T05:57:51;3.70;1.00
6206;DHT22;3136;48.788;9.772;2024-01-06T06:00:17;3.80;1.00
6206;DHT22;3136;48.788;9.772;2024-01-06T06:02:42;3.70;1.00
6206;DHT22;3136;48.788;9.772;2024-01-06T06:05:08;3.70;1.00
6206;DHT22;3136;48.788;9.772;2024-01-06T06:07:34;3.80;1.00
6206;DHT22;3136;48.788;9.772;2024-01-06T06:10:06;3.80;1.00
6206;DHT22;3136;48.788;9.772;2024-01-06T06:12:32;3.80;1.00
6206;DHT22;3136;48.788;9.772;2024-01-06T06:14:57;3.80;1.00
6206;DHT22;3136;48.788;9.772;2024-01-06T06:17:23;3.80;1.00
6206;DHT22;3136;48.788;9.772;2024-01-06T06:19:48;3.80;1.00
6206;DHT22;3136;48.788;9.772;2024-01-06T06:22:14;3.90;1.00
6206;DHT22;3136;48.788;9.772;2024-01-06T06:24:39;3.90;1.00
6206;DHT22;3136;48.788;9.772;2024-01-06T06:27:05;3.90;1.00
6206;DHT22;3136;48.788;9.772;2024-01-06T06:29:30;3.90;1.00
6206;DHT22;3136;48.788;9.772;2024-01-06T06:31:56;3.90;1.00
6206;DHT22;3136;48.788;9.772;2024-01-06T06:34:21;3.90;1.00
6206;DHT22;3136;48.788;9.772;2024-01-06T06:36:47;3.90;1.00
6206;DHT22;3136;48.788;9.772;2024-01-06T06:39:12;3.90;1.00
6206;DHT22;3136;48.788;9.772;2024-01-06T06:41:38;3.90;1.00
6206;DHT22;3136;48.788;9.772;2024-01-06T06:44:04;3.90;1.00
6206;DHT22;3136;48.788;9.772;2024-01-06T06:46:29;3.90;1.00
6206;DHT22;3136;48.788;9.772;2024-01-06T06:48:55;3.90;1.00
6206;DHT22;3136;48.788;9.772;2024-01-06T06:51:20;3.90;1.00
6206;DHT22;3136;48.788;9.772;2024-01-06T06:53:50;4.00;1.00
6206;DHT22;3136;48.788;9.772;2024-01-06T06:56:16;3.90;1.00
6206;DHT22;3136;48.788;9.772;2024-01-06T06:58:42;3.90;1.00
6206;DHT22;3136;48.788;9.772;2024-01-06T07:01:08;4.00;1.00
6206;DHT22;3136;48.788;9.772;2024-01-06T07:03:34;4.00;1.00
6206;DHT22;3136;48.788;9.772;2024-01-06T07:05:59;4.00;1.00
6206;DHT22;3136;48.788;9.772;2024-01-06T07:08:25;4.00;1.00
6206;DHT22;3136;48.788;9.772;2024-01-06T07:10:50;4.00;1.00
6206;DHT22;3136;48.788;9.772;2024-01-06T07:13:16;4.00;1.00
6206;DHT22;3136;48.788;9.772;2024-01-06T07:15:41;4.00;1.00
6206;DHT22;3136;48.788;9.772;2024-01-06T07:18:07;4.00;1.00
6206;DHT22;3136;48.788;9.772;2024-01-06T07:20:33;4.00;1.00
6206;DHT22;3136;48.788;9.772;2024-01-06T07:22:58;4.00;1.00
6206;DHT22;3136;48.788;9.772;2024-01-06T07:25:24;4.00;1.00
6206;DHT22;3136;48.788;9.772;2024-01-06T07:27:49;3.90;1.00
6206;DHT22;3136;48.788;9.772;2024-01-06T07:30:15;3.90;1.00
6206;DHT22;3136;48.788;9.772;2024-01-06T07:32:41;3.90;1.00
6206;DHT22;3136;48.788;9.772;2024-01-06T07:35:07;3.90;1.00
6206;DHT22;3136;48.788;9.772;2024-01-06T07:37:33;3.90;1.00
6206;DHT22;3136;48.788;9.772;2024-01-06T07:39:59;3.90;1.00
6206;DHT22;3136;48.788;9.772;2024-01-06T07:42:24;3.90;1.00
6206;DHT22;3136;48.788;9.772;2024-01-06T07:44:50;4.00;1.00
6206;DHT22;3136;48.788;9.772;2024-01-06T07:47:15;4.00;1.00
6206;DHT22;3136;48.788;9.772;2024-01-06T07:49:41;4.00;1.00
6206;DHT22;3136;48.788;9.772;2024-01-06T07:52:06;4.00;1.00
6206;DHT22;3136;48.788;9.772;2024-01-06T07:54:32;4.10;1.00
6206;DHT22;3136;48.788;9.772;2024-01-06T07:56:57;4.10;1.00
6206;DHT22;3136;48.788;9.772;2024-01-06T07:59:23;4.10;1.00
6206;DHT22;3136;48.788;9.772;2024-01-06T08:01:49;4.10;1.00
6206;DHT22;3136;48.788;9.772;2024-01-06T08:04:15;4.10;1.00
6206;DHT22;3136;48.788;9.772;2024-01-06T08:06:40;4.20;1.00
6206;DHT22;3136;48.788;9.772;2024-01-06T08:09:06;4.20;1.00
6206;DHT22;3136;48.788;9.772;2024-01-06T08:11:31;4.20;1.00
6206;DHT22;3136;48.788;9.772;2024-01-06T08:13:57;4.20;1.00
6206;DHT22;3136;48.788;9.772;2024-01-06T08:16:22;4.20;1.00
6206;DHT22;3136;48.788;9.772;2024-01-06T08:18:48;4.20;1.00
6206;DHT22;3136;48.788;9.772;2024-01-06T08:21:14;4.20;1.00
6206;DHT22;3136;48.788;9.772;2024-01-06T08:23:39;4.30;1.00
6206;DHT22;3136;48.788;9.772;2024-01-06T08:26:06;4.30;1.00
6206;DHT22;3136;48.788;9.772;2024-01-06T08:28:31;4.40;1.00
6206;DHT22;3136;48.788;9.772;2024-01-06T08:30:57;4.40;1.00
6206;DHT22;3136;48.788;9.772;2024-01-06T08:33:22;4.50;1.00
6206;DHT22;3136;48.788;9.772;2024-01-06T08:35:48;4.50;1.00
6206;DHT22;3136;48.788;9.772;2024-01-06T08:38:14;4.50;1.00
6206;DHT22;3136;48.788;9.772;2024-01-06T08:40:39;4.50;1.00
6206;DHT22;3136;48.788;9.772;2024-01-06T08:43:05;4.60;1.00
6206;DHT22;3136;48.788;9.772;2024-01-06T08:45:31;4.60;1.00
6206;DHT22;3136;48.788;9.772;2024-01-06T08:47:56;4.60;1.00
6206;DHT22;3136;48.788;9.772;2024-01-06T08:50:22;4.70;1.00
6206;DHT22;3136;48.788;9.772;2024-01-06T08:52:47;4.80;1.00
6206;DHT22;3136;48.788;9.772;2024-01-06T08:55:13;4.80;1.00
6206;DHT22;3136;48.788;9.772;2024-01-06T08:57:39;4.90;1.00
6206;DHT22;3136;48.788;9.772;2024-01-06T09:00:05;4.90;1.00
6206;DHT22;3136;48.788;9.772;2024-01-06T09:02:31;4.90;1.00
6206;DHT22;3136;48.788;9.772;2024-01-06T09:04:56;5.00;1.00
6206;DHT22;3136;48.788;9.772;2024-01-06T09:07:22;5.00;1.00
6206;DHT22;3136;48.788;9.772;2024-01-06T09:09:47;5.00;1.00
6206;DHT22;3136;48.788;9.772;2024-01-06T09:12:13;5.10;1.00
6206;DHT22;3136;48.788;9.772;2024-01-06T09:14:38;5.10;1.00
6206;DHT22;3136;48.788;9.772;2024-01-06T09:17:04;5.10;1.00
6206;DHT22;3136;48.788;9.772;2024-01-06T09:19:30;5.10;1.00
6206;DHT22;3136;48.788;9.772;2024-01-06T09:21:56;5.10;1.00
6206;DHT22;3136;48.788;9.772;2024-01-06T09:24:22;5.10;1.00
6206;DHT22;3136;48.788;9.772;2024-01-06T09:26:47;5.20;1.00
6206;DHT22;3136;48.788;9.772;2024-01-06T09:29:15;5.20;1.00
6206;DHT22;3136;48.788;9.772;2024-01-06T09:31:42;5.20;1.00
6206;DHT22;3136;48.788;9.772;2024-01-06T09:34:09;5.20;99.90
6206;DHT22;3136;48.788;9.772;2024-01-06T09:36:35;5.20;99.90
6206;DHT22;3136;48.788;9.772;2024-01-06T09:39:01;5.30;99.90
6206;DHT22;3136;48.788;9.772;2024-01-06T09:41:27;5.30;99.90
6206;DHT22;3136;48.788;9.772;2024-01-06T09:43:52;5.30;99.90
6206;DHT22;3136;48.788;9.772;2024-01-06T09:46:24;5.40;99.90
6206;DHT22;3136;48.788;9.772;2024-01-06T09:48:53;5.40;99.90
6206;DHT22;3136;48.788;9.772;2024-01-06T09:51:20;5.50;99.90
6206;DHT22;3136;48.788;9.772;2024-01-06T09:53:59;5.50;1.00
6206;DHT22;3136;48.788;9.772;2024-01-06T09:56:26;5.50;1.00
6206;DHT22;3136;48.788;9.772;2024-01-06T09:58:52;5.50;1.00
6206;DHT22;3136;48.788;9.772;2024-01-06T10:01:19;5.50;99.90
6206;DHT22;3136;48.788;9.772;2024-01-06T10:03:44;5.50;20.10
6206;DHT22;3136;48.788;9.772;2024-01-06T10:06:16;5.50;1.00
6206;DHT22;3136;48.788;9.772;2024-01-06T10:08:43;5.50;1.00
6206;DHT22;3136;48.788;9.772;2024-01-06T10:11:09;5.50;1.00
6206;DHT22;3136;48.788;9.772;2024-01-06T10:13:36;5.50;1.00
6206;DHT22;3136;48.788;9.772;2024-01-06T10:16:04;5.50;1.00
6206;DHT22;3136;48.788;9.772;2024-01-06T10:18:31;5.60;1.00
6206;DHT22;3136;48.788;9.772;2024-01-06T10:20:57;5.60;99.90
6206;DHT22;3136;48.788;9.772;2024-01-06T10:23:23;5.70;1.00
6206;DHT22;3136;48.788;9.772;2024-01-06T10:25:55;5.70;1.00
6206;DHT22;3136;48.788;9.772;2024-01-06T10:28:22;7.50;77.90
6206;DHT22;3136;48.788;9.772;2024-01-06T10:30:53;5.80;99.90
6206;DHT22;3136;48.788;9.772;2024-01-06T10:33:20;5.90;99.90
6206;DHT22;3136;48.788;9.772;2024-01-06T10:35:47;6.10;99.90
6206;DHT22;3136;48.788;9.772;2024-01-06T10:38:13;6.30;1.00
6206;DHT22;3136;48.788;9.772;2024-01-06T10:40:40;6.50;99.90
6206;DHT22;3136;48.788;9.772;2024-01-06T10:43:12;6.50;1.00
6206;DHT22;3136;48.788;9.772;2024-01-06T10:45:37;6.60;99.90
6206;DHT22;3136;48.788;9.772;2024-01-06T10:48:05;6.70;99.90
6206;DHT22;3136;48.788;9.772;2024-01-06T10:50:31;6.70;99.90
6206;DHT22;3136;48.788;9.772;2024-01-06T10:52:58;6.80;99.90
6206;DHT22;3136;48.788;9.772;2024-01-06T10:55:25;6.70;99.90
6206;DHT22;3136;48.788;9.772;2024-01-06T10:57:52;6.80;99.90
6206;DHT22;3136;48.788;9.772;2024-01-06T11:00:18;6.90;99.90
6206;DHT22;3136;48.788;9.772;2024-01-06T11:02:44;6.90;1.00
6206;DHT22;3136;48.788;9.772;2024-01-06T11:05:13;6.80;99.90
6206;DHT22;3136;48.788;9.772;2024-01-06T11:07:39;6.80;99.90
6206;DHT22;3136;48.788;9.772;2024-01-06T11:10:11;6.70;99.90
6206;DHT22;3136;48.788;9.772;2024-01-06T11:12:42;6.60;76.10
6206;DHT22;3136;48.788;9.772;2024-01-06T11:15:07;6.50;99.90
6206;DHT22;3136;48.788;9.772;2024-01-06T11:17:53;6.40;99.90
6206;DHT22;3136;48.788;9.772;2024-01-06T11:20:21;6.40;99.90
6206;DHT22;3136;48.788;9.772;2024-01-06T11:22:47;6.30;1.00
6206;DHT22;3136;48.788;9.772;2024-01-06T11:25:17;6.80;1.00
6206;DHT22;3136;48.788;9.772;2024-01-06T11:27:45;6.10;1.00
6206;DHT22;3136;48.788;9.772;2024-01-06T11:30:25;6.00;99.90
6206;DHT22;3136;48.788;9.772;2024-01-06T11:32:57;5.80;1.00
6206;DHT22;3136;48.788;9.772;2024-01-06T11:35:27;5.80;49.20
6206;DHT22;3136;48.788;9.772;2024-01-06T11:37:55;5.70;1.00
6206;DHT22;3136;48.788;9.772;2024-01-06T11:45:29;5.70;1.00
6206;DHT22;3136;48.788;9.772;2024-01-06T11:47:56;5.70;1.00
6206;DHT22;3136;48.788;9.772;2024-01-06T11:50:24;5.70;1.00
6206;DHT22;3136;48.788;9.772;2024-01-06T11:52:50;5.70;99.90
6206;DHT22;3136;48.788;9.772;2024-01-06T11:55:18;5.70;99.90
6206;DHT22;3136;48.788;9.772;2024-01-06T11:57:44;5.70;99.90
6206;DHT22;3136;48.788;9.772;2024-01-06T12:00:10;5.70;1.00
6206;DHT22;3136;48.788;9.772;2024-01-06T12:02:36;5.80;99.90
6206;DHT22;3136;48.788;9.772;2024-01-06T12:05:02;5.70;1.00
6206;DHT22;3136;48.788;9.772;2024-01-06T12:07:27;5.70;73.50
6206;DHT22;3136;48.788;9.772;2024-01-06T12:10:03;5.70;99.90
6206;DHT22;3136;48.788;9.772;2024-01-06T12:12:29;5.60;1.00
6206;DHT22;3136;48.788;9.772;2024-01-06T12:14:54;5.60;1.00
6206;DHT22;3136;48.788;9.772;2024-01-06T12:17:21;5.60;1.00
6206;DHT22;3136;48.788;9.772;2024-01-06T12:19:47;5.60;1.00
6206;DHT22;3136;48.788;9.772;2024-01-06T12:22:14;5.60;99.90
6206;DHT22;3136;48.788;9.772;2024-01-06T12:24:41;5.70;3.30
6206;DHT22;3136;48.788;9.772;2024-01-06T12:27:08;5.70;99.90
6206;DHT22;3136;48.788;9.772;2024-01-06T12:29:38;5.60;99.90
6206;DHT22;3136;48.788;9.772;2024-01-06T12:32:05;5.70;1.00
6206;DHT22;3136;48.788;9.772;2024-01-06T12:34:31;5.70;1.00
6206;DHT22;3136;48.788;9.772;2024-01-06T12:36:56;5.70;55.70
6206;DHT22;3136;48.788;9.772;2024-01-06T12:39:27;5.70;99.90
6206;DHT22;3136;48.788;9.772;2024-01-06T12:41:54;5.80;99.90
6206;DHT22;3136;48.788;9.772;2024-01-06T12:44:20;5.80;99.90
6206;DHT22;3136;48.788;9.772;2024-01-06T12:46:45;5.80;99.90
6206;DHT22;3136;48.788;9.772;2024-01-06T12:49:11;5.70;99.90
6206;DHT22;3136;48.788;9.772;2024-01-06T12:51:37;5.80;41.80
6206;DHT22;3136;48.788;9.772;2024-01-06T12:54:03;5.80;1.00
6206;DHT22;3136;48.788;9.772;2024-01-06T12:56:29;5.80;2.20
6206;DHT22;3136;48.788;9.772;2024-01-06T12:58:55;5.70;1.00
6206;DHT22;3136;48.788;9.772;2024-01-06T13:01:21;5.80;1.00
6206;DHT22;3136;48.788;9.772;2024-01-06T13:03:46;5.80;1.00
6206;DHT22;3136;48.788;9.772;2024-01-06T13:06:19;5.80;1.00
6206;DHT22;3136;48.788;9.772;2024-01-06T13:08:45;5.80;1.00
6206;DHT22;3136;48.788;9.772;2024-01-06T13:11:11;5.80;1.00
6206;DHT22;3136;48.788;9.772;2024-01-06T13:13:36;5.80;1.00
6206;DHT22;3136;48.788;9.772;2024-01-06T13:16:02;5.80;1.00
6206;DHT22;3136;48.788;9.772;2024-01-06T13:18:30;5.80;1.00
6206;DHT22;3136;48.788;9.772;2024-01-06T13:20:56;5.80;99.90
6206;DHT22;3136;48.788;9.772;2024-01-06T13:23:21;5.90;99.90
6206;DHT22;3136;48.788;9.772;2024-01-06T13:25:47;5.80;99.90
6206;DHT22;3136;48.788;9.772;2024-01-06T13:28:12;5.80;1.00
6206;DHT22;3136;48.788;9.772;2024-01-06T13:30:38;5.80;1.00
6206;DHT22;3136;48.788;9.772;2024-01-06T13:33:07;5.70;1.00
6206;DHT22;3136;48.788;9.772;2024-01-06T13:35:34;5.70;1.00
6206;DHT22;3136;48.788;9.772;2024-01-06T13:38:02;5.70;99.90
6206;DHT22;3136;48.788;9.772;2024-01-06T13:40:29;5.70;99.90
6206;DHT22;3136;48.788;9.772;2024-01-06T13:42:55;5.60;99.90
6206;DHT22;3136;48.788;9.772;2024-01-06T13:45:21;5.60;1.00
6206;DHT22;3136;48.788;9.772;2024-01-06T13:47:47;5.60;99.90
6206;DHT22;3136;48.788;9.772;2024-01-06T13:50:13;5.60;1.00
6206;DHT22;3136;48.788;9.772;2024-01-06T13:52:40;5.50;1.00
6206;DHT22;3136;48.788;9.772;2024-01-06T13:55:06;5.50;99.90
6206;DHT22;3136;48.788;9.772;2024-01-06T13:57:32;5.50;2.10
6206;DHT22;3136;48.788;9.772;2024-01-06T13:59:58;5.50;99.90
6206;DHT22;3136;48.788;9.772;2024-01-06T14:02:24;5.50;99.90
6206;DHT22;3136;48.788;9.772;2024-01-06T14:04:50;5.50;1.00
6206;DHT22;3136;48.788;9.772;2024-01-06T14:07:16;5.50;1.00
6206;DHT22;3136;48.788;9.772;2024-01-06T14:09:45;5.50;1.00
6206;DHT22;3136;48.788;9.772;2024-01-06T14:12:11;5.50;1.00
6206;DHT22;3136;48.788;9.772;2024-01-06T14:14:36;5.50;1.00
6206;DHT22;3136;48.788;9.772;2024-01-06T14:17:02;5.50;1.00
6206;DHT22;3136;48.788;9.772;2024-01-06T14:19:28;5.50;99.90
6206;DHT22;3136;48.788;9.772;2024-01-06T14:21:53;5.50;99.90
6206;DHT22;3136;48.788;9.772;2024-01-06T14:24:19;5.50;99.90
6206;DHT22;3136;48.788;9.772;2024-01-06T14:26:49;5.40;70.50
6206;DHT22;3136;48.788;9.772;2024-01-06T14:29:15;5.40;99.90
6206;DHT22;3136;48.788;9.772;2024-01-06T14:31:42;5.40;99.90
6206;DHT22;3136;48.788;9.772;2024-01-06T14:34:07;5.40;99.90
6206;DHT22;3136;48.788;9.772;2024-01-06T14:36:33;5.40;99.90
6206;DHT22;3136;48.788;9.772;2024-01-06T14:38:59;5.40;1.00
6206;DHT22;3136;48.788;9.772;2024-01-06T14:41:26;5.40;97.10
6206;DHT22;3136;48.788;9.772;2024-01-06T14:43:52;5.40;99.90
6206;DHT22;3136;48.788;9.772;2024-01-06T14:46:17;5.30;99.90
6206;DHT22;3136;48.788;9.772;2024-01-06T14:48:44;5.30;1.00
6206;DHT22;3136;48.788;9.772;2024-01-06T14:51:09;5.40;1.00
6206;DHT22;3136;48.788;9.772;2024-01-06T14:53:35;4.60;29.40
6206;DHT22;3136;48.788;9.772;2024-01-06T14:56:00;5.30;99.90
6206;DHT22;3136;48.788;9.772;2024-01-06T14:58:26;5.30;99.90
6206;DHT22;3136;48.788;9.772;2024-01-06T15:00:52;5.30;99.90
6206;DHT22;3136;48.788;9.772;2024-01-06T15:03:17;5.30;1.00
6206;DHT22;3136;48.788;9.772;2024-01-06T15:05:43;5.30;99.90
6206;DHT22;3136;48.788;9.772;2024-01-06T15:08:08;5.20;1.00
6206;DHT22;3136;48.788;9.772;2024-01-06T15:10:34;5.20;99.90
6206;DHT22;3136;48.788;9.772;2024-01-06T15:12:59;5.20;1.00
6206;DHT22;3136;48.788;9.772;2024-01-06T15:15:25;5.20;1.00
6206;DHT22;3136;48.788;9.772;2024-01-06T15:17:51;5.20;97.40
6206;DHT22;3136;48.788;9.772;2024-01-06T15:20:17;5.20;99.90
6206;DHT22;3136;48.788;9.772;2024-01-06T15:22:43;5.20;1.00
6206;DHT22;3136;48.788;9.772;2024-01-06T15:25:08;5.10;1.00
6206;DHT22;3136;48.788;9.772;2024-01-06T15:27:35;5.10;1.00
6206;DHT22;3136;48.788;9.772;2024-01-06T15:30:01;5.10;99.90
6206;DHT22;3136;48.788;9.772;2024-01-06T15:32:34;5.10;99.90
6206;DHT22;3136;48.788;9.772;2024-01-06T15:35:00;5.10;1.00
6206;DHT22;3136;48.788;9.772;2024-01-06T15:37:25;5.10;1.00
6206;DHT22;3136;48.788;9.772;2024-01-06T15:39:51;5.00;1.00
6206;DHT22;3136;48.788;9.772;2024-01-06T15:42:16;5.00;1.00
6206;DHT22;3136;48.788;9.772;2024-01-06T15:44:42;5.00;1.00
6206;DHT22;3136;48.788;9.772;2024-01-06T15:47:07;5.00;1.00
6206;DHT22;3136;48.788;9.772;2024-01-06T15:49:33;5.00;25.10
6206;DHT22;3136;48.788;9.772;2024-01-06T15:51:58;5.00;98.50
6206;DHT22;3136;48.788;9.772;2024-01-06T15:54:24;5.00;99.90
6206;DHT22;3136;48.788;9.772;2024-01-06T15:56:50;4.90;99.90
6206;DHT22;3136;48.788;9.772;2024-01-06T15:59:16;5.00;99.90
6206;DHT22;3136;48.788;9.772;2024-01-06T16:01:41;5.00;99.90
6206;DHT22;3136;48.788;9.772;2024-01-06T16:04:07;5.00;99.90
6206;DHT22;3136;48.788;9.772;2024-01-06T16:06:32;4.90;99.90
6206;DHT22;3136;48.788;9.772;2024-01-06T16:08:58;4.90;99.90
6206;DHT22;3136;48.788;9.772;2024-01-06T16:11:24;4.90;99.90
6206;DHT22;3136;48.788;9.772;2024-01-06T16:13:49;4.90;99.90
6206;DHT22;3136;48.788;9.772;2024-01-06T16:16:15;4.90;99.90
6206;DHT22;3136;48.788;9.772;2024-01-06T16:18:41;4.90;99.90
6206;DHT22;3136;48.788;9.772;2024-01-06T16:21:07;4.90;1.00
6206;DHT22;3136;48.788;9.772;2024-01-06T16:23:32;4.90;1.00
6206;DHT22;3136;48.788;9.772;2024-01-06T16:25:58;4.90;1.00
6206;DHT22;3136;48.788;9.772;2024-01-06T16:28:23;4.90;1.00
6206;DHT22;3136;48.788;9.772;2024-01-06T16:30:50;4.90;1.00